Time;durP1;ratioP1;P1;durP2;ratioP2;P2;SDS_P1;SDS_P2;PMS_P1;PMS_P2;Temp;Humidity;BMP_temperature;BMP_pressure;BME280_temperature;BME280_humidity;BME280_pressure;Samples;Min_cycle;Max_cycle;Signal;HPM_P1;HPM_P2
2022/12/13 00:00:14;;;;;;;;;;;0.10;52.50;;;;;;5031025;28;19942;-87
2022/12/13 00:02:43;;;;;;;;;;;0.10;52.60;;;;;;5031119;28;19913;-87
2022/12/13 00:05:09;;;;;;;;;;;0.00;52.60;;;;;;5032690;28;20012;-87
2022/12/13 00:07:35;;;;;;;;;;;0.00;52.60;;;;;;5031411;28;19924;-87
2022/12/13 00:10:01;;;;;;;;;;;0.00;52.40;;;;;;5031350;28;19913;-85
2022/12/13 00:12:26;;;;;;;;;;;0.00;52.20;;;;;;5034417;28;19945;-87
2022/12/13 00:14:52;;;;;;;;;;;0.00;52.10;;;;;;5030567;28;19951;-86
2022/12/13 00:17:18;;;;;;;;;;;0.00;52.00;;;;;;5022732;28;19914;-86
2022/12/13 00:19:45;;;;;;;;;;;-3276.70;52.10;;;;;;5012136;28;19944;-87
2022/12/13 00:22:10;;;;;;;;;;;-3276.70;52.30;;;;;;5032368;28;19913;-86
2022/12/13 00:24:36;;;;;;;;;;;-3276.70;52.50;;;;;;5034221;28;19919;-87
2022/12/13 00:27:01;;;;;;;;;;;-3276.60;52.70;;;;;;5031402;28;20385;-87
2022/12/13 00:29:27;;;;;;;;;;;-3276.70;52.90;;;;;;5032758;28;19928;-87
2022/12/13 00:31:52;;;;;;;;;;;-3276.70;53.00;;;;;;5033343;28;19918;-87
2022/12/13 00:34:18;;;;;;;;;;;-3276.70;52.80;;;;;;5018753;28;19920;-87
2022/12/13 00:36:44;;;;;;;;;;;-3276.60;52.90;;;;;;5012919;28;19924;-87
2022/12/13 00:39:12;;;;;;;;;;;-3276.60;53.00;;;;;;5033019;28;20390;-87
2022/12/13 00:41:41;;;;;;;;;;;-3276.60;52.90;;;;;;5032279;28;20008;-87
2022/12/13 00:44:06;;;;;;;;;;;-3276.60;52.70;;;;;;5030522;28;19913;-87
2022/12/13 00:46:32;;;;;;;;;;;-3276.60;52.80;;;;;;5032134;28;20434;-88
2022/12/13 00:48:58;;;;;;;;;;;-3276.60;52.80;;;;;;5029469;28;19923;-87
2022/12/13 00:51:25;;;;;;;;;;;-3276.60;52.70;;;;;;5030988;28;19931;-87
2022/12/13 00:53:50;;;;;;;;;;;-3276.50;52.60;;;;;;5029030;28;20324;-87
2022/12/13 00:56:18;;;;;;;;;;;-3276.50;52.50;;;;;;5030467;28;20007;-87
2022/12/13 00:58:44;;;;;;;;;;;-3276.40;52.30;;;;;;5032715;28;19925;-87
2022/12/13 01:01:10;;;;;;;;;;;-3276.40;52.30;;;;;;5031509;28;19943;-87
2022/12/13 01:03:36;;;;;;;;;;;-3276.40;52.00;;;;;;5032698;28;19913;-86
2022/12/13 01:06:07;;;;;;;;;;;-3276.40;51.80;;;;;;5023531;28;19976;-87
2022/12/13 01:08:33;;;;;;;;;;;-3276.40;51.90;;;;;;5010128;28;19924;-87
2022/12/13 01:10:58;;;;;;;;;;;-3276.30;52.20;;;;;;5024146;28;20372;-88
2022/12/13 01:13:24;;;;;;;;;;;-3276.30;52.50;;;;;;5031558;28;20743;-87
2022/12/13 01:15:49;;;;;;;;;;;-3276.30;52.50;;;;;;5029836;28;19921;-86
2022/12/13 01:18:17;;;;;;;;;;;-3276.30;52.40;;;;;;5012224;28;19932;-85
2022/12/13 01:21:03;;;;;;;;;;;-3276.30;52.50;;;;;;5016852;28;19917;-87
2022/12/13 01:23:29;;;;;;;;;;;-3276.30;52.30;;;;;;5032993;28;20016;-87
2022/12/13 01:25:55;;;;;;;;;;;-3276.30;52.10;;;;;;5029983;28;20344;-87
2022/12/13 01:28:20;;;;;;;;;;;-3276.30;51.90;;;;;;5031323;28;19919;-87
2022/12/13 01:30:58;;;;;;;;;;;-3276.20;51.80;;;;;;5029297;28;20277;-87
2022/12/13 01:33:24;;;;;;;;;;;-3276.20;51.60;;;;;;5030906;28;19957;-87
2022/12/13 01:35:50;;;;;;;;;;;-3276.20;51.80;;;;;;5029447;28;20532;-87
2022/12/13 01:38:15;;;;;;;;;;;-3276.10;51.80;;;;;;5028242;28;20372;-86
2022/12/13 01:40:49;;;;;;;;;;;-3276.10;51.70;;;;;;5009555;28;19917;-87
2022/12/13 01:43:15;;;;;;;;;;;-3276.10;51.70;;;;;;5010963;28;19910;-87
2022/12/13 01:45:41;;;;;;;;;;;-3276.00;51.70;;;;;;5018010;28;19917;-87
2022/12/13 01:48:13;;;;;;;;;;;-3276.00;51.50;;;;;;5030945;28;20588;-86
2022/12/13 01:50:41;;;;;;;;;;;-3276.00;51.40;;;;;;5035040;28;19944;-87
2022/12/13 01:53:08;;;;;;;;;;;-3276.00;51.50;;;;;;5031568;28;19916;-86
2022/12/13 01:55:35;;;;;;;;;;;-3275.90;51.50;;;;;;5030427;28;19921;-87
2022/12/13 01:58:04;;;;;;;;;;;-3275.90;51.50;;;;;;5030850;28;19944;-86
2022/12/13 02:00:31;;;;;;;;;;;-3275.90;51.80;;;;;;5030849;28;20043;-87
2022/12/13 02:02:58;;;;;;;;;;;-3275.90;52.00;;;;;;5030564;28;20276;-86
2022/12/13 02:05:32;;;;;;;;;;;-3275.90;52.10;;;;;;5030791;28;19921;-87
2022/12/13 02:07:58;;;;;;;;;;;-3275.90;51.90;;;;;;5031591;28;19948;-87
2022/12/13 02:10:25;;;;;;;;;;;-3275.90;51.60;;;;;;5028640;28;19924;-86
2022/12/13 02:12:50;;;;;;;;;;;-3275.80;51.30;;;;;;5030856;28;20422;-86
2022/12/13 02:15:16;;;;;;;;;;;-3275.80;51.10;;;;;;5028001;28;19917;-87
2022/12/13 02:17:57;;;;;;;;;;;-3275.80;50.90;;;;;;5028648;28;20268;-87
2022/12/13 02:20:23;;;;;;;;;;;-3275.80;50.80;;;;;;5030770;28;20003;-87
2022/12/13 02:23:00;;;;;;;;;;;-3275.70;50.80;;;;;;5031729;28;19960;-87
2022/12/13 02:25:26;;;;;;;;;;;-3275.70;50.70;;;;;;5031402;28;19917;-87
2022/12/13 02:28:10;;;;;;;;;;;-3275.70;50.70;;;;;;5029695;28;19921;-87
2022/12/13 02:30:40;;;;;;;;;;;-3275.70;50.70;;;;;;5029511;28;20338;-87
2022/12/13 02:33:06;;;;;;;;;;;-3275.60;51.10;;;;;;5029988;28;20276;-87
2022/12/13 02:35:31;;;;;;;;;;;-3275.70;51.50;;;;;;5029355;28;19913;-87
2022/12/13 02:38:03;;;;;;;;;;;-3275.60;51.50;;;;;;5029729;28;20024;-87
2022/12/13 02:40:31;;;;;;;;;;;-3275.70;51.60;;;;;;5029987;28;19955;-87
2022/12/13 02:42:56;;;;;;;;;;;-3275.70;51.60;;;;;;5030998;28;20420;-87
2022/12/13 02:45:25;;;;;;;;;;;-3275.70;51.80;;;;;;5030033;28;19913;-87
2022/12/13 02:47:53;;;;;;;;;;;-3275.70;52.10;;;;;;5028842;28;20265;-87
2022/12/13 02:50:23;;;;;;;;;;;-3275.70;52.20;;;;;;5030230;28;19921;-86
2022/12/13 02:52:50;;;;;;;;;;;-3275.70;52.20;;;;;;5030071;28;19959;-87
2022/12/13 02:55:16;;;;;;;;;;;-3275.70;52.20;;;;;;5028936;28;19917;-86
2022/12/13 02:57:43;;;;;;;;;;;-3275.70;52.00;;;;;;5027834;28;19960;-87
2022/12/13 03:00:09;;;;;;;;;;;-3275.70;51.80;;;;;;5016364;28;20403;-86
2022/12/13 03:02:37;;;;;;;;;;;-3275.70;51.70;;;;;;5010605;28;19909;-87
2022/12/13 03:08:05;;;;;;;;;;;-3275.70;51.30;;;;;;5024814;28;19920;-87
2022/12/13 03:10:50;;;;;;;;;;;-3275.60;51.10;;;;;;5033448;28;19982;-87
2022/12/13 03:13:37;;;;;;;;;;;-3275.60;50.90;;;;;;5021636;28;19913;-87
2022/12/13 03:16:07;;;;;;;;;;;-3275.60;50.70;;;;;;5028074;28;19921;-86
2022/12/13 03:18:33;;;;;;;;;;;-3275.50;50.60;;;;;;5028300;28;20360;-86
2022/12/13 03:21:00;;;;;;;;;;;-3275.50;50.50;;;;;;5030059;28;19913;-86
2022/12/13 03:23:25;;;;;;;;;;;-3275.50;50.70;;;;;;5028493;28;19963;-87
2022/12/13 03:25:53;;;;;;;;;;;-3275.50;50.80;;;;;;5024149;28;19925;-86
2022/12/13 03:28:19;;;;;;;;;;;-3275.50;50.90;;;;;;5021948;28;19909;-87
2022/12/13 03:30:44;;;;;;;;;;;-3275.60;51.20;;;;;;5029089;28;20673;-86
2022/12/13 03:33:10;;;;;;;;;;;-3275.60;51.40;;;;;;5032578;28;19913;-86
2022/12/13 03:35:35;;;;;;;;;;;-3275.60;51.40;;;;;;5033359;28;19917;-87
2022/12/13 03:38:01;;;;;;;;;;;-3275.50;51.40;;;;;;5032879;28;19986;-87
2022/12/13 03:40:28;;;;;;;;;;;-3275.60;51.60;;;;;;5026750;28;19963;-87
2022/12/13 03:42:53;;;;;;;;;;;-3275.60;51.40;;;;;;5032080;28;19913;-87
2022/12/13 03:45:19;;;;;;;;;;;-3275.50;51.30;;;;;;5034564;28;19917;-86
2022/12/13 03:47:45;;;;;;;;;;;-3275.60;51.40;;;;;;5035024;28;20460;-87
2022/12/13 03:50:10;;;;;;;;;;;-3275.60;51.60;;;;;;5032373;28;20319;-87
2022/12/13 03:52:36;;;;;;;;;;;-3275.60;51.80;;;;;;5033016;28;19917;-87
2022/12/13 03:55:01;;;;;;;;;;;-3275.60;51.80;;;;;;5031736;28;19913;-87
2022/12/13 03:57:28;;;;;;;;;;;-3275.60;51.90;;;;;;5033667;28;19927;-87
2022/12/13 03:59:53;;;;;;;;;;;-3275.60;51.80;;;;;;5033336;28;19917;-87
2022/12/13 04:02:19;;;;;;;;;;;-3275.60;51.60;;;;;;5033378;28;19995;-86
2022/12/13 04:04:44;;;;;;;;;;;-3275.60;51.60;;;;;;5031616;28;19913;-88
2022/12/13 04:07:10;;;;;;;;;;;-3275.60;51.60;;;;;;5032512;28;19917;-86
2022/12/13 04:09:35;;;;;;;;;;;-3275.60;51.70;;;;;;5032754;28;20316;-87
2022/12/13 04:14:45;;;;;;;;;;;-3275.60;51.70;;;;;;5023843;28;19956;-86
2022/12/13 04:17:10;;;;;;;;;;;-3275.60;51.80;;;;;;5030938;28;19960;-86
2022/12/13 04:19:36;;;;;;;;;;;-3275.60;51.70;;;;;;5034009;28;19928;-86
2022/12/13 04:22:01;;;;;;;;;;;-3275.50;51.50;;;;;;5035612;28;20003;-86
2022/12/13 04:24:26;;;;;;;;;;;-3275.60;51.50;;;;;;5031849;28;20275;-87
2022/12/13 04:26:52;;;;;;;;;;;-3275.60;51.60;;;;;;5031941;28;19946;-86
2022/12/13 04:29:18;;;;;;;;;;;-3275.50;51.40;;;;;;5031336;28;19991;-87
2022/12/13 04:31:43;;;;;;;;;;;-3275.60;51.20;;;;;;5032593;28;19944;-87
2022/12/13 04:34:08;;;;;;;;;;;-3275.50;51.00;;;;;;5031711;28;19913;-87
2022/12/13 04:36:34;;;;;;;;;;;-3275.50;50.90;;;;;;5031249;28;19913;-88
2022/12/13 04:39:01;;;;;;;;;;;-3275.40;50.80;;;;;;5031359;28;19921;-87
2022/12/13 04:41:26;;;;;;;;;;;-3275.40;50.60;;;;;;5032453;28;19947;-88
2022/12/13 04:43:52;;;;;;;;;;;-3275.40;50.60;;;;;;5031311;28;19921;-88
2022/12/13 04:46:18;;;;;;;;;;;-3275.30;50.80;;;;;;5030474;28;19913;-87
2022/12/13 04:48:44;;;;;;;;;;;-3275.40;51.10;;;;;;5032086;28;19928;-87
2022/12/13 04:51:09;;;;;;;;;;;-3275.40;51.20;;;;;;5033567;28;19956;-88
2022/12/13 04:53:35;;;;;;;;;;;-3275.30;51.10;;;;;;5033166;28;19982;-87
2022/12/13 04:56:02;;;;;;;;;;;-3275.30;51.00;;;;;;5033204;28;19917;-87
2022/12/13 04:58:27;;;;;;;;;;;-3275.30;51.00;;;;;;5031406;28;19925;-87
2022/12/13 05:00:53;;;;;;;;;;;-3275.30;51.00;;;;;;5030928;28;19924;-87
2022/12/13 05:03:18;;;;;;;;;;;-3275.30;51.00;;;;;;5030812;28;19979;-87
2022/12/13 05:05:44;;;;;;;;;;;-3275.30;51.10;;;;;;5027062;28;19928;-87
2022/12/13 05:08:09;;;;;;;;;;;-3275.30;51.20;;;;;;5032450;28;19913;-88
2022/12/13 05:10:36;;;;;;;;;;;-3275.30;51.10;;;;;;5032625;28;19917;-88
2022/12/13 05:13:02;;;;;;;;;;;-3275.30;51.00;;;;;;5010865;28;19929;-88
2022/12/13 05:15:29;;;;;;;;;;;-3275.20;51.10;;;;;;5018871;28;19918;-86
2022/12/13 05:17:55;;;;;;;;;;;-3275.30;51.10;;;;;;5030467;28;20328;-87
2022/12/13 05:20:20;;;;;;;;;;;-3275.30;51.40;;;;;;5020803;28;20472;-87
2022/12/13 05:22:45;;;;;;;;;;;-3275.30;51.30;;;;;;5010401;28;19974;-87
2022/12/13 05:25:11;;;;;;;;;;;-3275.30;51.00;;;;;;5030735;28;19917;-87
2022/12/13 05:27:37;;;;;;;;;;;-3275.30;50.80;;;;;;5029788;28;19967;-86
2022/12/13 05:30:02;;;;;;;;;;;-3275.30;51.10;;;;;;5031920;28;20527;-87
2022/12/13 05:32:30;;;;;;;;;;;-3275.20;51.00;;;;;;5025691;28;19909;-85
2022/12/13 05:34:55;;;;;;;;;;;-3275.20;50.80;;;;;;5034502;28;19951;-86
2022/12/13 05:37:21;;;;;;;;;;;-3275.20;50.70;;;;;;5029231;28;19969;-86
2022/12/13 05:39:46;;;;;;;;;;;-3275.20;50.80;;;;;;5045591;28;19993;-87
2022/12/13 05:42:13;;;;;;;;;;;-3275.20;50.70;;;;;;5031352;28;21360;-86
2022/12/13 05:44:39;;;;;;;;;;;-3275.20;50.90;;;;;;5032557;28;20439;-87
2022/12/13 05:47:04;;;;;;;;;;;-3275.20;51.10;;;;;;5028704;28;20808;-88
2022/12/13 05:49:32;;;;;;;;;;;-3275.30;51.20;;;;;;5011355;28;19914;-87
2022/12/13 05:51:58;;;;;;;;;;;-3275.20;51.00;;;;;;5025685;28;19921;-87
2022/12/13 05:54:24;;;;;;;;;;;-3275.20;50.80;;;;;;5032614;28;19913;-86
2022/12/13 05:56:50;;;;;;;;;;;-3275.20;50.70;;;;;;5016088;28;20008;-87
2022/12/13 05:59:15;;;;;;;;;;;-3275.20;50.70;;;;;;5015763;28;19992;-87
2022/12/13 06:01:41;;;;;;;;;;;-3275.20;50.90;;;;;;5033277;28;19920;-87
2022/12/13 06:04:06;;;;;;;;;;;-3275.20;51.10;;;;;;5031656;28;19936;-87
2022/12/13 06:06:32;;;;;;;;;;;-3275.20;51.30;;;;;;5030519;28;19913;-87
2022/12/13 06:08:57;;;;;;;;;;;-3275.20;51.60;;;;;;5031992;28;19913;-87
2022/12/13 06:11:23;;;;;;;;;;;-3275.20;51.50;;;;;;5034499;28;19913;-87
2022/12/13 06:13:49;;;;;;;;;;;-3275.20;51.40;;;;;;5029840;28;20379;-88
2022/12/13 06:16:15;;;;;;;;;;;-3275.20;51.30;;;;;;5030783;28;19955;-85
2022/12/13 06:18:41;;;;;;;;;;;-3275.20;51.30;;;;;;5032032;28;20344;-87
2022/12/13 06:21:06;;;;;;;;;;;-3275.20;51.40;;;;;;5033024;28;20368;-86
2022/12/13 06:23:33;;;;;;;;;;;-3275.20;51.50;;;;;;5030687;28;19913;-87
2022/12/13 06:26:00;;;;;;;;;;;-3275.20;51.40;;;;;;5029774;28;19923;-87
2022/12/13 06:28:26;;;;;;;;;;;-3275.20;51.10;;;;;;5029606;28;19920;-87
2022/12/13 06:30:51;;;;;;;;;;;-3275.20;51.00;;;;;;5030811;28;19913;-87
2022/12/13 06:33:18;;;;;;;;;;;-3275.20;51.00;;;;;;5030475;28;19980;-87
2022/12/13 06:35:43;;;;;;;;;;;-3275.10;51.00;;;;;;5033197;28;19928;-88
2022/12/13 06:38:09;;;;;;;;;;;-3275.20;51.30;;;;;;5028996;28;19921;-87
2022/12/13 06:40:35;;;;;;;;;;;-3275.20;51.40;;;;;;5029999;28;19920;-88
2022/12/13 06:43:00;;;;;;;;;;;-3275.20;51.40;;;;;;5018476;28;20424;-87
2022/12/13 06:45:26;;;;;;;;;;;-3275.20;51.10;;;;;;5022464;28;20349;-87
2022/12/13 06:47:51;;;;;;;;;;;-3275.20;51.00;;;;;;5021441;28;20046;-87
2022/12/13 06:50:17;;;;;;;;;;;-3275.20;50.90;;;;;;5030926;28;20291;-88
2022/12/13 06:52:44;;;;;;;;;;;-3275.20;50.80;;;;;;5028590;28;20046;-87
2022/12/13 06:55:10;;;;;;;;;;;-3275.20;50.70;;;;;;5028898;28;19928;-87
2022/12/13 06:57:35;;;;;;;;;;;-3275.20;50.80;;;;;;5028960;28;19909;-86
2022/12/13 07:00:02;;;;;;;;;;;-3275.10;50.70;;;;;;5028794;28;19955;-87
2022/12/13 07:02:27;;;;;;;;;;;-3275.10;50.60;;;;;;5027354;28;19920;-86
2022/12/13 07:04:53;;;;;;;;;;;-3275.10;50.70;;;;;;5018024;28;20024;-87
2022/12/13 07:07:19;;;;;;;;;;;-3275.10;50.50;;;;;;5029577;28;20254;-86
2022/12/13 07:09:44;;;;;;;;;;;-3275.10;50.20;;;;;;5033469;28;19919;-88
2022/12/13 07:12:10;;;;;;;;;;;-3275.10;50.00;;;;;;5034780;28;19957;-87
2022/12/13 07:14:35;;;;;;;;;;;-3275.10;50.00;;;;;;5035712;28;20000;-87
2022/12/13 07:17:01;;;;;;;;;;;-3275.00;49.80;;;;;;5036104;28;19921;-87
2022/12/13 07:19:26;;;;;;;;;;;-3275.00;49.80;;;;;;5032881;28;20351;-87
2022/12/13 07:21:52;;;;;;;;;;;-3275.00;49.80;;;;;;5030304;28;19987;-88
2022/12/13 07:24:17;;;;;;;;;;;-3275.00;49.90;;;;;;5021232;28;19913;-87
2022/12/13 07:26:43;;;;;;;;;;;-3275.00;50.00;;;;;;5024668;28;19925;-88
2022/12/13 07:29:08;;;;;;;;;;;-3275.00;50.10;;;;;;5030178;28;19917;-88
2022/12/13 07:31:36;;;;;;;;;;;-3275.00;50.30;;;;;;5031594;28;19917;-87
2022/12/13 07:34:04;;;;;;;;;;;-3275.00;50.40;;;;;;5031904;28;19913;-87
2022/12/13 07:36:29;;;;;;;;;;;-3275.00;50.50;;;;;;5029775;28;20004;-88
2022/12/13 07:38:55;;;;;;;;;;;-3275.10;50.90;;;;;;5029746;28;20528;-88
2022/12/13 07:41:22;;;;;;;;;;;-3275.10;51.20;;;;;;5029658;28;19921;-87
2022/12/13 07:43:50;;;;;;;;;;;-3275.20;51.40;;;;;;5027593;28;19917;-87
2022/12/13 07:46:15;;;;;;;;;;;-3275.20;51.80;;;;;;5026704;28;20449;-87
2022/12/13 07:48:41;;;;;;;;;;;-3275.40;52.30;;;;;;5028563;28;19963;-87
2022/12/13 07:51:09;;;;;;;;;;;-3275.50;52.90;;;;;;5025326;28;19921;-87
2022/12/13 07:53:35;;;;;;;;;;;-3275.70;53.30;;;;;;5040304;28;20119;-87
2022/12/13 07:56:02;;;;;;;;;;;-3275.90;53.70;;;;;;5017295;28;20053;-87
2022/12/13 07:58:29;;;;;;;;;;;-3276.00;54.10;;;;;;5024952;28;19951;-87
2022/12/13 08:00:57;;;;;;;;;;;-3276.30;54.50;;;;;;5029933;28;19924;-88
2022/12/13 08:03:23;;;;;;;;;;;-3276.50;55.00;;;;;;5028773;28;19921;-88
2022/12/13 08:05:48;;;;;;;;;;;-3276.70;55.40;;;;;;5013681;28;19924;-87
2022/12/13 08:08:14;;;;;;;;;;;0.10;55.80;;;;;;5010942;28;20368;-86
2022/12/13 08:10:39;;;;;;;;;;;0.30;56.10;;;;;;5058653;28;19917;-87
2022/12/13 08:13:06;;;;;;;;;;;0.60;56.40;;;;;;5028818;28;19917;-88
2022/12/13 08:15:31;;;;;;;;;;;0.80;56.70;;;;;;5030711;28;20368;-87
2022/12/13 08:17:59;;;;;;;;;;;1.10;57.00;;;;;;5026440;28;19929;-86
2022/12/13 08:20:24;;;;;;;;;;;1.30;57.20;;;;;;5060195;28;19920;-85
2022/12/13 08:22:57;;;;;;;;;;;1.60;57.30;;;;;;5027008;28;20284;-86
2022/12/13 08:25:22;;;;;;;;;;;1.80;57.30;;;;;;5018345;28;20007;-88
2022/12/13 08:27:48;;;;;;;;;;;2.10;57.50;;;;;;5048195;28;19921;-87
2022/12/13 08:30:13;;;;;;;;;;;2.40;57.70;;;;;;5012905;28;19917;-85
2022/12/13 08:32:39;;;;;;;;;;;2.70;57.80;;;;;;5010392;28;19924;-86
2022/12/13 08:35:05;;;;;;;;;;;2.90;57.80;;;;;;5024191;28;19909;-88
2022/12/13 08:37:30;;;;;;;;;;;3.20;58.00;;;;;;5027000;28;20539;-86
2022/12/13 08:39:58;;;;;;;;;;;3.40;57.90;;;;;;5023472;28;20023;-86
2022/12/13 08:42:24;;;;;;;;;;;3.70;58.30;;;;;;5025603;28;20044;-86
2022/12/13 08:44:51;;;;;;;;;;;4.00;58.60;;;;;;5028877;28;20000;-86
2022/12/13 08:47:17;;;;;;;;;;;4.20;58.80;;;;;;5030527;28;19921;-85
2022/12/13 08:49:42;;;;;;;;;;;4.50;58.90;;;;;;5027690;28;19917;-85
2022/12/13 08:52:08;;;;;;;;;;;4.70;59.00;;;;;;5026865;28;19971;-85
2022/12/13 08:54:33;;;;;;;;;;;4.80;58.60;;;;;;5031311;28;20261;-86
2022/12/13 08:56:59;;;;;;;;;;;5.00;58.30;;;;;;5027081;28;20443;-85
2022/12/13 08:59:25;;;;;;;;;;;5.10;58.00;;;;;;5028861;28;19921;-85
2022/12/13 09:01:50;;;;;;;;;;;5.20;57.80;;;;;;5028550;28;19949;-85
2022/12/13 09:04:16;;;;;;;;;;;5.30;58.30;;;;;;5027221;28;20392;-85
2022/12/13 09:06:50;;;;;;;;;;;5.40;58.60;;;;;;5029660;28;20439;-84
2022/12/13 09:09:16;;;;;;;;;;;5.60;58.40;;;;;;5026252;28;20548;-85
2022/12/13 09:11:41;;;;;;;;;;;5.70;57.80;;;;;;5026617;28;19920;-84
2022/12/13 09:14:07;;;;;;;;;;;5.70;57.50;;;;;;5027417;28;19921;-85
2022/12/13 09:16:35;;;;;;;;;;;5.80;57.40;;;;;;5028473;28;19949;-85
2022/12/13 09:19:01;;;;;;;;;;;5.70;57.40;;;;;;5026929;28;19929;-86
2022/12/13 09:21:26;;;;;;;;;;;5.80;57.80;;;;;;5028695;28;19917;-86
2022/12/13 09:23:53;;;;;;;;;;;5.80;57.30;;;;;;5027644;28;20567;-85
2022/12/13 09:26:18;;;;;;;;;;;5.70;57.20;;;;;;5028768;28;19913;-85
2022/12/13 09:28:44;;;;;;;;;;;5.80;57.60;;;;;;5025944;28;20012;-85
2022/12/13 09:31:11;;;;;;;;;;;5.90;57.90;;;;;;5028321;28;20004;-84
2022/12/13 09:33:36;;;;;;;;;;;6.00;57.80;;;;;;5027757;28;19947;-85
2022/12/13 09:36:04;;;;;;;;;;;6.00;57.80;;;;;;5025541;28;19917;-84
2022/12/13 09:38:30;;;;;;;;;;;6.00;57.90;;;;;;5026463;28;19933;-84
2022/12/13 09:40:59;;;;;;;;;;;6.10;58.10;;;;;;5027507;28;19917;-85
2022/12/13 09:43:30;;;;;;;;;;;6.10;58.10;;;;;;5026594;28;19960;-85
2022/12/13 09:45:56;;;;;;;;;;;6.20;57.90;;;;;;5027421;28;19913;-86
2022/12/13 09:48:21;;;;;;;;;;;6.20;57.60;;;;;;5027804;28;19921;-84
2022/12/13 09:50:47;;;;;;;;;;;6.20;57.90;;;;;;5025829;28;19917;-86
2022/12/13 09:53:15;;;;;;;;;;;6.20;57.90;;;;;;5027259;28;20002;-85
2022/12/13 09:55:42;;;;;;;;;;;6.20;58.10;;;;;;5024705;28;19924;-85
2022/12/13 09:58:14;;;;;;;;;;;6.30;58.20;;;;;;5027086;28;20055;-86
2022/12/13 10:00:40;;;;;;;;;;;6.40;58.00;;;;;;5027383;28;19948;-85
2022/12/13 10:03:11;;;;;;;;;;;6.40;58.10;;;;;;5024282;28;19970;-85
2022/12/13 10:05:37;;;;;;;;;;;6.50;58.30;;;;;;5027020;28;19917;-85
2022/12/13 10:08:13;;;;;;;;;;;6.50;58.50;;;;;;5026273;28;20429;-85
2022/12/13 10:10:39;;;;;;;;;;;6.60;58.60;;;;;;5026638;28;19913;-85
2022/12/13 10:13:25;;;;;;;;;;;6.70;58.70;;;;;;5015356;28;20292;-84
2022/12/13 10:15:57;;;;;;;;;;;6.80;58.70;;;;;;5015042;28;20296;-85
2022/12/13 10:18:33;;;;;;;;;;;6.80;58.50;;;;;;5017736;28;19988;-84
2022/12/13 10:21:02;;;;;;;;;;;6.90;58.10;;;;;;5016800;28;19917;-84
2022/12/13 10:23:27;;;;;;;;;;;6.90;57.90;;;;;;5015518;28;20393;-84
2022/12/13 10:25:53;;;;;;;;;;;7.00;58.00;;;;;;5018465;28;19978;-84
2022/12/13 10:28:29;;;;;;;;;;;7.00;57.80;;;;;;5015426;28;19995;-85
2022/12/13 10:30:56;;;;;;;;;;;7.10;58.10;;;;;;5017362;28;19936;-84
2022/12/13 10:33:30;;;;;;;;;;;7.10;57.70;;;;;;5017326;28;19925;-85
2022/12/13 10:36:01;;;;;;;;;;;7.20;57.70;;;;;;5016193;28;19914;-85
2022/12/13 10:38:28;;;;;;;;;;;7.20;58.10;;;;;;5014804;28;20340;-84
2022/12/13 10:40:53;;;;;;;;;;;7.30;58.00;;;;;;5024959;28;19928;-85
2022/12/13 10:43:23;;;;;;;;;;;7.30;58.10;;;;;;5032372;28;19970;-85
2022/12/13 10:45:54;;;;;;;;;;;7.40;57.80;;;;;;5033172;28;20680;-84
2022/12/13 10:48:53;;;;;;;;;;;7.40;57.70;;;;;;5031802;28;19917;-84
2022/12/13 10:51:19;;;;;;;;;;;7.40;58.10;;;;;;4987713;28;20627;-85
2022/12/13 10:53:46;;;;;;;;;;;7.50;58.40;;;;;;5033073;28;20418;-85
2022/12/13 10:56:12;;;;;;;;;;;7.70;58.00;;;;;;5032286;28;19928;-85
2022/12/13 10:58:41;;;;;;;;;;;7.80;58.10;;;;;;5033394;28;20416;-85
2022/12/13 11:01:27;;;;;;;;;;;7.80;57.70;;;;;;5031752;28;19991;-86
2022/12/13 11:03:57;;;;;;;;;;;7.90;57.20;;;;;;5032767;28;19967;-86
2022/12/13 11:06:24;;;;;;;;;;;8.00;57.20;;;;;;5012280;28;20638;-86
2022/12/13 11:08:49;;;;;;;;;;;8.00;57.10;;;;;;5011862;28;19928;-86
2022/12/13 11:11:17;;;;;;;;;;;8.10;57.00;;;;;;5030258;28;19913;-85
2022/12/13 11:13:52;;;;;;;;;;;8.10;56.80;;;;;;5031693;28;19956;-86
2022/12/13 11:16:18;;;;;;;;;;;8.10;56.60;;;;;;5031454;28;19913;-85
2022/12/13 11:18:49;;;;;;;;;;;8.10;56.70;;;;;;5032089;28;20002;-85
2022/12/13 11:21:22;;;;;;;;;;;8.00;55.80;;;;;;5031801;28;19913;-86
2022/12/13 11:23:47;;;;;;;;;;;8.00;55.50;;;;;;5032747;28;19925;-86
2022/12/13 11:26:21;;;;;;;;;;;7.80;55.00;;;;;;5031398;28;20390;-86
2022/12/13 11:29:05;;;;;;;;;;;7.70;54.30;;;;;;5032720;28;19921;-86
2022/12/13 11:31:43;;;;;;;;;;;7.60;55.40;;;;;;5032141;28;20403;-87
2022/12/13 11:34:21;;;;;;;;;;;7.60;55.60;;;;;;5031539;28;20070;-86
2022/12/13 11:36:52;;;;;;;;;;;7.50;54.70;;;;;;5031669;28;19917;-86
2022/12/13 11:39:38;;;;;;;;;;;7.30;54.50;;;;;;5031721;28;19971;-86
2022/12/13 11:42:09;;;;;;;;;;;7.20;55.10;;;;;;5031115;28;19922;-87
2022/12/13 11:44:35;;;;;;;;;;;7.20;55.90;;;;;;5032067;28;19924;-86
2022/12/13 11:47:00;;;;;;;;;;;7.10;55.50;;;;;;5012927;28;19921;-86
2022/12/13 11:49:36;;;;;;;;;;;7.00;55.70;;;;;;5044647;28;19953;-86
2022/12/13 11:52:04;;;;;;;;;;;6.80;55.10;;;;;;5008825;28;19925;-86
2022/12/13 11:54:29;;;;;;;;;;;6.60;54.90;;;;;;5014360;28;20076;-87
2022/12/13 11:56:55;;;;;;;;;;;6.30;54.90;;;;;;5008285;28;20351;-86
2022/12/13 11:59:34;;;;;;;;;;;6.10;54.80;;;;;;5010920;28;20013;-86
2022/12/13 12:02:18;;;;;;;;;;;5.80;55.20;;;;;;5012687;28;19921;-86
2022/12/13 12:04:46;;;;;;;;;;;5.60;55.20;;;;;;5028110;28;19913;-87
2022/12/13 12:07:13;;;;;;;;;;;5.40;55.60;;;;;;5028560;28;19936;-86
2022/12/13 12:09:40;;;;;;;;;;;5.30;55.80;;;;;;5028929;28;19939;-86
2022/12/13 12:12:10;;;;;;;;;;;5.20;56.10;;;;;;5033548;28;19999;-86
2022/12/13 12:14:42;;;;;;;;;;;5.10;56.20;;;;;;5034644;28;19924;-86
2022/12/13 12:17:11;;;;;;;;;;;5.00;56.40;;;;;;5026691;28;20391;-85
2022/12/13 12:19:38;;;;;;;;;;;4.90;56.60;;;;;;5026276;28;20013;-86
2022/12/13 12:22:12;;;;;;;;;;;4.80;56.50;;;;;;5027004;28;19943;-86
2022/12/13 12:24:47;;;;;;;;;;;4.70;56.40;;;;;;5028376;28;19939;-86
2022/12/13 12:27:22;;;;;;;;;;;4.60;56.70;;;;;;5042165;28;19928;-86
2022/12/13 12:30:02;;;;;;;;;;;4.50;56.90;;;;;;5027581;28;20067;-87
2022/12/13 12:32:31;;;;;;;;;;;4.50;56.90;;;;;;5026004;28;19924;-86
2022/12/13 12:34:56;;;;;;;;;;;4.40;57.10;;;;;;5026282;28;19964;-86
2022/12/13 12:37:22;;;;;;;;;;;4.40;57.00;;;;;;5043403;28;19971;-87
2022/12/13 12:39:53;;;;;;;;;;;4.30;57.00;;;;;;5023172;28;19932;-86
2022/12/13 12:42:19;;;;;;;;;;;4.30;56.80;;;;;;5023416;28;20279;-86
2022/12/13 12:44:47;;;;;;;;;;;4.30;56.90;;;;;;5028474;28;19962;-87
2022/12/13 12:47:33;;;;;;;;;;;4.20;56.80;;;;;;5028952;28;20549;-85
2022/12/13 12:50:08;;;;;;;;;;;4.20;57.20;;;;;;5022753;28;19917;-85
2022/12/13 12:52:46;;;;;;;;;;;4.10;57.30;;;;;;5021920;28;19993;-85
2022/12/13 12:55:20;;;;;;;;;;;4.10;57.20;;;;;;5026285;28;20004;-85
2022/12/13 12:58:04;;;;;;;;;;;4.10;57.20;;;;;;5025607;28;19987;-86
2022/12/13 13:00:34;;;;;;;;;;;4.00;57.40;;;;;;5012172;28;19932;-85
2022/12/13 13:03:10;;;;;;;;;;;4.00;57.30;;;;;;5021389;28;19921;-86
2022/12/13 13:05:39;;;;;;;;;;;4.00;56.90;;;;;;5019238;28;19917;-86
2022/12/13 13:08:37;;;;;;;;;;;4.00;57.20;;;;;;5016391;28;19928;-86
2022/12/13 13:11:04;;;;;;;;;;;4.00;57.20;;;;;;4981878;28;19913;-86
2022/12/13 13:13:32;;;;;;;;;;;3.90;57.10;;;;;;5023660;28;19925;-86
2022/12/13 13:15:58;;;;;;;;;;;3.90;57.10;;;;;;5025223;28;19917;-87
2022/12/13 13:18:43;;;;;;;;;;;3.90;57.10;;;;;;5023907;28;19936;-86
2022/12/13 13:21:32;;;;;;;;;;;3.90;56.90;;;;;;5014045;28;19921;-87
2022/12/13 13:24:01;;;;;;;;;;;3.80;56.90;;;;;;4997354;28;20301;-86
2022/12/13 13:26:43;;;;;;;;;;;3.80;56.90;;;;;;5009605;28;19921;-87
2022/12/13 13:29:21;;;;;;;;;;;3.80;57.00;;;;;;5025814;28;19920;-86
2022/12/13 13:32:00;;;;;;;;;;;3.80;57.00;;;;;;5016784;28;20159;-86
2022/12/13 13:34:26;;;;;;;;;;;3.70;56.90;;;;;;5024410;28;19924;-87
2022/12/13 13:36:54;;;;;;;;;;;3.70;56.70;;;;;;5026683;28;19913;-86
2022/12/13 13:39:35;;;;;;;;;;;3.70;56.80;;;;;;5023960;28;19925;-86
2022/12/13 13:42:06;;;;;;;;;;;3.60;56.80;;;;;;5023939;28;19979;-85
2022/12/13 13:44:33;;;;;;;;;;;3.60;56.70;;;;;;5023127;28;19975;-87
2022/12/13 13:47:35;;;;;;;;;;;3.60;56.70;;;;;;5033820;28;19924;-88
2022/12/13 13:50:07;;;;;;;;;;;3.50;56.70;;;;;;4935820;29;19969;-86
2022/12/13 13:52:51;;;;;;;;;;;3.50;56.50;;;;;;5019289;28;20071;-88
2022/12/13 13:55:26;;;;;;;;;;;3.40;56.50;;;;;;5035269;28;19960;-87
2022/12/13 13:57:54;;;;;;;;;;;3.40;56.40;;;;;;5027927;28;19921;-86
2022/12/13 14:00:22;;;;;;;;;;;3.30;56.50;;;;;;5027967;28;19963;-87
2022/12/13 14:03:12;;;;;;;;;;;3.30;56.60;;;;;;5023277;28;19956;-86
2022/12/13 14:05:56;;;;;;;;;;;3.30;56.70;;;;;;5012803;28;20271;-88
2022/12/13 14:08:41;;;;;;;;;;;3.30;56.70;;;;;;5025159;28;19921;-86
2022/12/13 14:11:25;;;;;;;;;;;3.20;56.60;;;;;;5024630;28;20414;-86
2022/12/13 14:14:13;;;;;;;;;;;3.20;56.90;;;;;;5027907;28;19921;-87